Lockwood, California
Current Conditions -  °F | °C
As of 10:30 AM on Thursday 29 Jan 2015 (Local Time) from KPRB Reporting Station
Haze Haze  
Wind Chill: 47°   Ceiling: 200
Heat Index: 47°   Visibility: 0.75mi
Dew Point: 45°   Wind: 0mph
Humidity: 93%   Direction: NA
Pressure: 30.15"   Gusts: NA
Location:  35.94°N, 121.08°W
Report Text: KPRB 291830Z AUTO 00000KT 3/4SM BR VV002 08/07 A3015 RMK AO2 T00830072 TSNO
Loading
Personal Weather Stations






























Interactive Weather Map New forecast layout! Learn more

10-Day Weather Forecast

Advertisements
Track Severe Weather on mobile